sensor_id;sensor_type;location;lat;lon;timestamp;temperature;humidity
72650;SHT31;61467;50.674;4.618;2022-07-23T00:00:08;18.65;75.83
72650;SHT31;61467;50.674;4.618;2022-07-23T00:02:35;18.71;75.51
72650;SHT31;61467;50.674;4.618;2022-07-23T00:05:04;18.56;76.18
72650;SHT31;61467;50.674;4.618;2022-07-23T00:07:30;18.53;76.08
72650;SHT31;61467;50.674;4.618;2022-07-23T00:09:57;18.32;77.03
72650;SHT31;61467;50.674;4.618;2022-07-23T00:12:24;18.30;77.14
72650;SHT31;61467;50.674;4.618;2022-07-23T00:14:50;18.13;77.68
72650;SHT31;61467;50.674;4.618;2022-07-23T00:17:17;17.92;78.47
72650;SHT31;61467;50.674;4.618;2022-07-23T00:19:44;18.05;77.98
72650;SHT31;61467;50.674;4.618;2022-07-23T00:22:12;17.86;78.91
72650;SHT31;61467;50.674;4.618;2022-07-23T00:24:39;17.81;78.89
72650;SHT31;61467;50.674;4.618;2022-07-23T00:27:05;17.83;78.78
72650;SHT31;61467;50.674;4.618;2022-07-23T00:29:32;17.93;78.25
72650;SHT31;61467;50.674;4.618;2022-07-23T00:31:59;17.95;78.28
72650;SHT31;61467;50.674;4.618;2022-07-23T00:34:25;18.09;77.60
72650;SHT31;61467;50.674;4.618;2022-07-23T00:36:52;18.02;77.64
72650;SHT31;61467;50.674;4.618;2022-07-23T00:39:20;17.81;78.35
72650;SHT31;61467;50.674;4.618;2022-07-23T00:41:48;17.89;78.27
72650;SHT31;61467;50.674;4.618;2022-07-23T00:44:16;17.98;77.53
72650;SHT31;61467;50.674;4.618;2022-07-23T00:46:45;17.95;77.60
72650;SHT31;61467;50.674;4.618;2022-07-23T00:49:12;18.02;77.12
72650;SHT31;61467;50.674;4.618;2022-07-23T00:51:39;18.10;76.84
72650;SHT31;61467;50.674;4.618;2022-07-23T00:54:06;18.17;76.47
72650;SHT31;61467;50.674;4.618;2022-07-23T00:56:34;18.23;76.05
72650;SHT31;61467;50.674;4.618;2022-07-23T00:59:01;18.08;76.39
72650;SHT31;61467;50.674;4.618;2022-07-23T01:01:27;18.16;76.28
72650;SHT31;61467;50.674;4.618;2022-07-23T01:03:54;18.23;75.65
72650;SHT31;61467;50.674;4.618;2022-07-23T01:06:21;18.25;75.79
72650;SHT31;61467;50.674;4.618;2022-07-23T01:08:48;18.14;75.83
72650;SHT31;61467;50.674;4.618;2022-07-23T01:11:15;18.12;75.91
72650;SHT31;61467;50.674;4.618;2022-07-23T01:13:45;18.12;76.06
72650;SHT31;61467;50.674;4.618;2022-07-23T01:16:12;18.02;76.29
72650;SHT31;61467;50.674;4.618;2022-07-23T01:18:39;18.01;76.22
72650;SHT31;61467;50.674;4.618;2022-07-23T01:21:05;18.02;76.21
72650;SHT31;61467;50.674;4.618;2022-07-23T01:23:33;17.96;76.38
72650;SHT31;61467;50.674;4.618;2022-07-23T01:26:00;18.01;76.10
72650;SHT31;61467;50.674;4.618;2022-07-23T01:28:27;18.06;75.98
72650;SHT31;61467;50.674;4.618;2022-07-23T01:30:53;18.20;75.54
72650;SHT31;61467;50.674;4.618;2022-07-23T01:33:20;18.22;75.18
72650;SHT31;61467;50.674;4.618;2022-07-23T01:35:46;18.50;74.08
72650;SHT31;61467;50.674;4.618;2022-07-23T01:38:13;18.57;73.73
72650;SHT31;61467;50.674;4.618;2022-07-23T01:40:41;18.47;74.22
72650;SHT31;61467;50.674;4.618;2022-07-23T01:43:08;18.30;74.83
72650;SHT31;61467;50.674;4.618;2022-07-23T01:45:34;18.47;74.01
72650;SHT31;61467;50.674;4.618;2022-07-23T01:48:01;18.37;74.36
72650;SHT31;61467;50.674;4.618;2022-07-23T01:50:27;18.22;74.81
72650;SHT31;61467;50.674;4.618;2022-07-23T01:52:54;18.13;75.00
72650;SHT31;61467;50.674;4.618;2022-07-23T01:55:21;18.08;75.35
72650;SHT31;61467;50.674;4.618;2022-07-23T01:57:49;18.06;75.23
72650;SHT31;61467;50.674;4.618;2022-07-23T02:00:15;17.95;75.71
72650;SHT31;61467;50.674;4.618;2022-07-23T02:02:42;18.01;75.76
72650;SHT31;61467;50.674;4.618;2022-07-23T02:05:09;17.96;75.73
72650;SHT31;61467;50.674;4.618;2022-07-23T02:07:36;17.91;75.85
72650;SHT31;61467;50.674;4.618;2022-07-23T02:10:03;17.85;76.02
72650;SHT31;61467;50.674;4.618;2022-07-23T02:12:30;17.70;76.36
72650;SHT31;61467;50.674;4.618;2022-07-23T02:14:58;17.54;76.89
72650;SHT31;61467;50.674;4.618;2022-07-23T02:17:25;17.52;77.08
72650;SHT31;61467;50.674;4.618;2022-07-23T02:19:51;17.43;77.31
72650;SHT31;61467;50.674;4.618;2022-07-23T02:22:18;17.51;77.18
72650;SHT31;61467;50.674;4.618;2022-07-23T02:24:45;17.58;76.94
72650;SHT31;61467;50.674;4.618;2022-07-23T02:27:11;17.52;77.14
72650;SHT31;61467;50.674;4.618;2022-07-23T02:29:39;17.58;77.23
72650;SHT31;61467;50.674;4.618;2022-07-23T02:32:07;17.55;77.29
72650;SHT31;61467;50.674;4.618;2022-07-23T02:34:34;17.55;77.36
72650;SHT31;61467;50.674;4.618;2022-07-23T02:37:01;17.55;77.19
72650;SHT31;61467;50.674;4.618;2022-07-23T02:39:27;17.55;77.02
72650;SHT31;61467;50.674;4.618;2022-07-23T02:41:54;17.55;77.16
72650;SHT31;61467;50.674;4.618;2022-07-23T02:44:21;17.48;77.29
72650;SHT31;61467;50.674;4.618;2022-07-23T02:46:47;17.52;77.12
72650;SHT31;61467;50.674;4.618;2022-07-23T02:49:16;17.48;77.20
72650;SHT31;61467;50.674;4.618;2022-07-23T02:51:42;17.41;77.52
72650;SHT31;61467;50.674;4.618;2022-07-23T02:54:09;17.33;77.66
72650;SHT31;61467;50.674;4.618;2022-07-23T02:56:36;17.30;78.02
72650;SHT31;61467;50.674;4.618;2022-07-23T02:59:02;17.31;78.04
72650;SHT31;61467;50.674;4.618;2022-07-23T03:01:29;17.31;77.82
72650;SHT31;61467;50.674;4.618;2022-07-23T03:03:55;17.35;77.91
72650;SHT31;61467;50.674;4.618;2022-07-23T03:06:23;17.43;77.52
72650;SHT31;61467;50.674;4.618;2022-07-23T03:08:50;17.45;77.47
72650;SHT31;61467;50.674;4.618;2022-07-23T03:11:17;17.44;77.43
72650;SHT31;61467;50.674;4.618;2022-07-23T03:13:44;17.43;77.39
72650;SHT31;61467;50.674;4.618;2022-07-23T03:16:10;17.44;77.30
72650;SHT31;61467;50.674;4.618;2022-07-23T03:18:37;17.43;77.44
72650;SHT31;61467;50.674;4.618;2022-07-23T03:21:04;17.38;77.50
72650;SHT31;61467;50.674;4.618;2022-07-23T03:23:32;17.31;77.80
72650;SHT31;61467;50.674;4.618;2022-07-23T03:25:59;17.27;77.90
72650;SHT31;61467;50.674;4.618;2022-07-23T03:28:26;17.16;78.25
72650;SHT31;61467;50.674;4.618;2022-07-23T03:30:52;17.12;78.47
72650;SHT31;61467;50.674;4.618;2022-07-23T03:33:20;17.20;77.95
72650;SHT31;61467;50.674;4.618;2022-07-23T03:35:47;17.21;77.69
72650;SHT31;61467;50.674;4.618;2022-07-23T03:38:14;17.19;78.18
72650;SHT31;61467;50.674;4.618;2022-07-23T03:40:43;17.16;78.23
72650;SHT31;61467;50.674;4.618;2022-07-23T03:43:09;17.13;78.16
72650;SHT31;61467;50.674;4.618;2022-07-23T03:45:36;17.12;78.25
72650;SHT31;61467;50.674;4.618;2022-07-23T03:48:03;17.19;78.20
72650;SHT31;61467;50.674;4.618;2022-07-23T03:50:29;17.09;78.17
72650;SHT31;61467;50.674;4.618;2022-07-23T03:52:56;16.97;78.74
72650;SHT31;61467;50.674;4.618;2022-07-23T03:55:22;16.97;78.67
72650;SHT31;61467;50.674;4.618;2022-07-23T03:57:50;17.00;78.74
72650;SHT31;61467;50.674;4.618;2022-07-23T04:00:17;17.09;78.54
72650;SHT31;61467;50.674;4.618;2022-07-23T04:02:44;17.02;78.69
72650;SHT31;61467;50.674;4.618;2022-07-23T04:05:11;16.89;79.25
72650;SHT31;61467;50.674;4.618;2022-07-23T04:07:37;16.83;79.77
72650;SHT31;61467;50.674;4.618;2022-07-23T04:10:06;16.77;79.88
72650;SHT31;61467;50.674;4.618;2022-07-23T04:12:32;16.84;79.75
72650;SHT31;61467;50.674;4.618;2022-07-23T04:15:01;17.03;79.01
72650;SHT31;61467;50.674;4.618;2022-07-23T04:17:27;16.93;79.32
72650;SHT31;61467;50.674;4.618;2022-07-23T04:19:54;16.97;79.20
72650;SHT31;61467;50.674;4.618;2022-07-23T04:22:21;17.10;78.72
72650;SHT31;61467;50.674;4.618;2022-07-23T04:24:47;16.97;79.41
72650;SHT31;61467;50.674;4.618;2022-07-23T04:27:14;16.92;79.55
72650;SHT31;61467;50.674;4.618;2022-07-23T04:29:41;17.03;78.96
72650;SHT31;61467;50.674;4.618;2022-07-23T04:32:09;17.04;78.96
72650;SHT31;61467;50.674;4.618;2022-07-23T04:34:36;17.14;78.83
72650;SHT31;61467;50.674;4.618;2022-07-23T04:37:02;17.20;78.60
72650;SHT31;61467;50.674;4.618;2022-07-23T04:39:29;17.17;78.67
72650;SHT31;61467;50.674;4.618;2022-07-23T04:41:56;17.07;78.76
72650;SHT31;61467;50.674;4.618;2022-07-23T04:44:22;17.16;78.69
72650;SHT31;61467;50.674;4.618;2022-07-23T04:46:49;17.28;78.22
72650;SHT31;61467;50.674;4.618;2022-07-23T04:49:17;17.26;78.12
72650;SHT31;61467;50.674;4.618;2022-07-23T04:51:44;17.35;77.82
72650;SHT31;61467;50.674;4.618;2022-07-23T04:54:10;17.30;77.94
72650;SHT31;61467;50.674;4.618;2022-07-23T04:56:37;17.34;77.85
72650;SHT31;61467;50.674;4.618;2022-07-23T04:59:03;17.37;77.72
72650;SHT31;61467;50.674;4.618;2022-07-23T05:01:30;17.31;78.11
72650;SHT31;61467;50.674;4.618;2022-07-23T05:03:57;17.20;78.55
72650;SHT31;61467;50.674;4.618;2022-07-23T05:06:25;17.21;78.70
72650;SHT31;61467;50.674;4.618;2022-07-23T05:08:51;17.21;78.70
72650;SHT31;61467;50.674;4.618;2022-07-23T05:11:20;17.33;78.48
72650;SHT31;61467;50.674;4.618;2022-07-23T05:13:47;17.40;78.25
72650;SHT31;61467;50.674;4.618;2022-07-23T05:16:13;17.55;77.87
72650;SHT31;61467;50.674;4.618;2022-07-23T05:18:40;17.62;77.65
72650;SHT31;61467;50.674;4.618;2022-07-23T05:21:07;17.55;77.84
72650;SHT31;61467;50.674;4.618;2022-07-23T05:23:35;17.67;77.44
72650;SHT31;61467;50.674;4.618;2022-07-23T05:26:01;17.61;77.83
72650;SHT31;61467;50.674;4.618;2022-07-23T05:28:28;17.74;77.47
72650;SHT31;61467;50.674;4.618;2022-07-23T05:30:54;17.78;77.13
72650;SHT31;61467;50.674;4.618;2022-07-23T05:33:21;17.95;77.00
72650;SHT31;61467;50.674;4.618;2022-07-23T05:35:48;17.93;76.70
72650;SHT31;61467;50.674;4.618;2022-07-23T05:38:15;18.05;76.40
72650;SHT31;61467;50.674;4.618;2022-07-23T05:40:43;18.20;75.76
72650;SHT31;61467;50.674;4.618;2022-07-23T05:43:09;18.46;74.80
72650;SHT31;61467;50.674;4.618;2022-07-23T05:45:36;18.49;74.86
72650;SHT31;61467;50.674;4.618;2022-07-23T05:48:03;19.04;72.74
72650;SHT31;61467;50.674;4.618;2022-07-23T05:50:30;19.15;72.22
72650;SHT31;61467;50.674;4.618;2022-07-23T05:52:57;19.28;71.72
72650;SHT31;61467;50.674;4.618;2022-07-23T05:55:24;19.28;71.69
72650;SHT31;61467;50.674;4.618;2022-07-23T05:57:52;19.23;71.73
72650;SHT31;61467;50.674;4.618;2022-07-23T06:00:19;19.14;71.81
72650;SHT31;61467;50.674;4.618;2022-07-23T06:02:45;19.33;71.42
72650;SHT31;61467;50.674;4.618;2022-07-23T06:05:12;19.45;70.73
72650;SHT31;61467;50.674;4.618;2022-07-23T06:07:39;19.63;70.36
72650;SHT31;61467;50.674;4.618;2022-07-23T06:10:06;19.86;69.82
72650;SHT31;61467;50.674;4.618;2022-07-23T06:12:33;19.94;69.45
72650;SHT31;61467;50.674;4.618;2022-07-23T06:15:01;20.07;68.66
72650;SHT31;61467;50.674;4.618;2022-07-23T06:17:28;19.93;69.06
72650;SHT31;61467;50.674;4.618;2022-07-23T06:19:55;19.91;69.40
72650;SHT31;61467;50.674;4.618;2022-07-23T06:22:22;19.76;69.90
72650;SHT31;61467;50.674;4.618;2022-07-23T06:24:49;19.41;71.28
72650;SHT31;61467;50.674;4.618;2022-07-23T06:27:17;19.62;71.03
72650;SHT31;61467;50.674;4.618;2022-07-23T06:29:44;19.66;70.68
72650;SHT31;61467;50.674;4.618;2022-07-23T06:32:12;19.74;70.62
72650;SHT31;61467;50.674;4.618;2022-07-23T06:34:38;19.67;70.77
72650;SHT31;61467;50.674;4.618;2022-07-23T06:37:05;19.70;70.97
72650;SHT31;61467;50.674;4.618;2022-07-23T06:39:31;19.73;70.99
72650;SHT31;61467;50.674;4.618;2022-07-23T06:41:58;19.80;70.85
72650;SHT31;61467;50.674;4.618;2022-07-23T06:44:26;20.27;69.48
72650;SHT31;61467;50.674;4.618;2022-07-23T06:46:53;20.38;69.28
72650;SHT31;61467;50.674;4.618;2022-07-23T06:49:21;20.56;68.35
72650;SHT31;61467;50.674;4.618;2022-07-23T06:52:00;20.71;68.38
72650;SHT31;61467;50.674;4.618;2022-07-23T06:55:02;21.10;67.04
72650;SHT31;61467;50.674;4.618;2022-07-23T06:57:52;21.53;65.71
72650;SHT31;61467;50.674;4.618;2022-07-23T07:00:34;21.82;64.60
72650;SHT31;61467;50.674;4.618;2022-07-23T07:03:17;22.05;63.92
72650;SHT31;61467;50.674;4.618;2022-07-23T07:06:30;21.85;64.35
72650;SHT31;61467;50.674;4.618;2022-07-23T07:08:56;21.47;65.76
72650;SHT31;61467;50.674;4.618;2022-07-23T07:11:23;21.41;66.68
72650;SHT31;61467;50.674;4.618;2022-07-23T07:13:50;21.33;66.45
72650;SHT31;61467;50.674;4.618;2022-07-23T07:16:17;21.39;66.21
72650;SHT31;61467;50.674;4.618;2022-07-23T07:18:44;21.50;66.43
72650;SHT31;61467;50.674;4.618;2022-07-23T07:21:11;21.53;66.67
72650;SHT31;61467;50.674;4.618;2022-07-23T07:23:39;21.46;66.77
72650;SHT31;61467;50.674;4.618;2022-07-23T07:26:06;21.80;64.88
72650;SHT31;61467;50.674;4.618;2022-07-23T07:28:33;22.11;64.05
72650;SHT31;61467;50.674;4.618;2022-07-23T07:30:59;22.04;65.19
72650;SHT31;61467;50.674;4.618;2022-07-23T07:33:26;21.87;65.26
72650;SHT31;61467;50.674;4.618;2022-07-23T07:35:53;22.01;65.74
72650;SHT31;61467;50.674;4.618;2022-07-23T07:38:19;22.13;64.22
72650;SHT31;61467;50.674;4.618;2022-07-23T07:40:48;22.09;63.80
72650;SHT31;61467;50.674;4.618;2022-07-23T07:43:14;22.38;62.92
72650;SHT31;61467;50.674;4.618;2022-07-23T07:45:41;22.55;62.26
72650;SHT31;61467;50.674;4.618;2022-07-23T07:48:08;22.52;62.50
72650;SHT31;61467;50.674;4.618;2022-07-23T07:50:34;22.59;62.33
72650;SHT31;61467;50.674;4.618;2022-07-23T07:53:01;22.79;61.14
72650;SHT31;61467;50.674;4.618;2022-07-23T07:55:28;22.77;62.79
72650;SHT31;61467;50.674;4.618;2022-07-23T07:57:56;22.89;61.74
72650;SHT31;61467;50.674;4.618;2022-07-23T08:00:22;22.98;60.71
72650;SHT31;61467;50.674;4.618;2022-07-23T08:02:51;22.74;61.03
72650;SHT31;61467;50.674;4.618;2022-07-23T08:05:22;22.50;59.63
72650;SHT31;61467;50.674;4.618;2022-07-23T08:07:49;22.87;59.71
72650;SHT31;61467;50.674;4.618;2022-07-23T08:10:16;22.83;59.40
72650;SHT31;61467;50.674;4.618;2022-07-23T08:12:44;22.97;58.81
72650;SHT31;61467;50.674;4.618;2022-07-23T08:15:13;23.11;58.13
72650;SHT31;61467;50.674;4.618;2022-07-23T08:17:41;23.18;58.13
72650;SHT31;61467;50.674;4.618;2022-07-23T08:20:09;22.87;61.45
72650;SHT31;61467;50.674;4.618;2022-07-23T08:22:47;22.79;60.74
72650;SHT31;61467;50.674;4.618;2022-07-23T08:25:15;23.12;59.54
72650;SHT31;61467;50.674;4.618;2022-07-23T08:27:42;22.89;59.92
72650;SHT31;61467;50.674;4.618;2022-07-23T08:30:09;23.15;59.08
72650;SHT31;61467;50.674;4.618;2022-07-23T08:32:52;22.66;59.58
72650;SHT31;61467;50.674;4.618;2022-07-23T08:35:22;23.07;59.33
72650;SHT31;61467;50.674;4.618;2022-07-23T08:37:49;23.00;59.28
72650;SHT31;61467;50.674;4.618;2022-07-23T08:40:16;22.97;59.54
72650;SHT31;61467;50.674;4.618;2022-07-23T08:42:43;23.18;58.48
72650;SHT31;61467;50.674;4.618;2022-07-23T08:45:11;23.21;58.12
72650;SHT31;61467;50.674;4.618;2022-07-23T08:47:38;23.28;57.94
72650;SHT31;61467;50.674;4.618;2022-07-23T08:50:08;23.24;59.07
72650;SHT31;61467;50.674;4.618;2022-07-23T08:52:36;23.52;57.43
72650;SHT31;61467;50.674;4.618;2022-07-23T08:55:03;23.61;57.14
72650;SHT31;61467;50.674;4.618;2022-07-23T08:57:30;23.59;57.05
72650;SHT31;61467;50.674;4.618;2022-07-23T08:59:57;23.61;57.43
72650;SHT31;61467;50.674;4.618;2022-07-23T09:02:24;23.70;57.35
72650;SHT31;61467;50.674;4.618;2022-07-23T09:04:50;23.66;56.80
72650;SHT31;61467;50.674;4.618;2022-07-23T09:07:18;23.68;56.91
72650;SHT31;61467;50.674;4.618;2022-07-23T09:09:45;23.98;56.30
72650;SHT31;61467;50.674;4.618;2022-07-23T09:12:12;24.10;56.24
72650;SHT31;61467;50.674;4.618;2022-07-23T09:14:40;24.24;55.61
72650;SHT31;61467;50.674;4.618;2022-07-23T09:17:12;24.31;55.02
72650;SHT31;61467;50.674;4.618;2022-07-23T09:19:39;24.47;52.60
72650;SHT31;61467;50.674;4.618;2022-07-23T09:22:22;24.54;53.99
72650;SHT31;61467;50.674;4.618;2022-07-23T09:25:07;24.61;53.61
72650;SHT31;61467;50.674;4.618;2022-07-23T09:27:53;24.54;52.54
72650;SHT31;61467;50.674;4.618;2022-07-23T09:30:21;24.65;53.24
72650;SHT31;61467;50.674;4.618;2022-07-23T09:33:07;24.48;53.08
72650;SHT31;61467;50.674;4.618;2022-07-23T09:35:48;23.75;53.61
72650;SHT31;61467;50.674;4.618;2022-07-23T09:38:17;23.82;53.76
72650;SHT31;61467;50.674;4.618;2022-07-23T09:40:44;23.92;54.47
72650;SHT31;61467;50.674;4.618;2022-07-23T09:43:12;24.33;53.69
72650;SHT31;61467;50.674;4.618;2022-07-23T09:45:39;24.38;53.65
72650;SHT31;61467;50.674;4.618;2022-07-23T09:48:13;24.46;54.00
72650;SHT31;61467;50.674;4.618;2022-07-23T09:50:40;24.44;53.86
72650;SHT31;61467;50.674;4.618;2022-07-23T09:53:07;24.58;54.33
72650;SHT31;61467;50.674;4.618;2022-07-23T09:55:36;24.57;53.26
72650;SHT31;61467;50.674;4.618;2022-07-23T09:58:05;24.56;52.92
72650;SHT31;61467;50.674;4.618;2022-07-23T10:00:33;24.50;52.76
72650;SHT31;61467;50.674;4.618;2022-07-23T10:03:01;24.60;52.38
72650;SHT31;61467;50.674;4.618;2022-07-23T10:05:29;24.63;52.22
72650;SHT31;61467;50.674;4.618;2022-07-23T10:07:57;24.63;52.39
72650;SHT31;61467;50.674;4.618;2022-07-23T10:10:26;24.74;52.22
72650;SHT31;61467;50.674;4.618;2022-07-23T10:12:55;24.46;52.61
72650;SHT31;61467;50.674;4.618;2022-07-23T10:15:36;24.67;52.47
72650;SHT31;61467;50.674;4.618;2022-07-23T10:18:03;24.60;51.44
72650;SHT31;61467;50.674;4.618;2022-07-23T10:20:29;24.82;50.28
72650;SHT31;61467;50.674;4.618;2022-07-23T10:23:02;24.68;51.18
72650;SHT31;61467;50.674;4.618;2022-07-23T10:25:36;24.79;51.26
72650;SHT31;61467;50.674;4.618;2022-07-23T10:28:27;24.78;51.10
72650;SHT31;61467;50.674;4.618;2022-07-23T10:31:02;24.65;51.90
72650;SHT31;61467;50.674;4.618;2022-07-23T10:33:39;24.65;51.30
72650;SHT31;61467;50.674;4.618;2022-07-23T10:36:13;24.77;51.57
72650;SHT31;61467;50.674;4.618;2022-07-23T10:38:48;24.89;50.51
72650;SHT31;61467;50.674;4.618;2022-07-23T10:41:30;24.89;50.31
72650;SHT31;61467;50.674;4.618;2022-07-23T10:44:07;24.98;51.57
72650;SHT31;61467;50.674;4.618;2022-07-23T10:46:34;25.25;50.19
72650;SHT31;61467;50.674;4.618;2022-07-23T10:49:22;25.42;49.12
72650;SHT31;61467;50.674;4.618;2022-07-23T10:52:18;25.30;49.84
72650;SHT31;61467;50.674;4.618;2022-07-23T10:54:46;25.19;49.57
72650;SHT31;61467;50.674;4.618;2022-07-23T10:57:14;25.32;50.57
72650;SHT31;61467;50.674;4.618;2022-07-23T11:00:18;25.73;48.81
72650;SHT31;61467;50.674;4.618;2022-07-23T11:02:47;25.57;48.94
72650;SHT31;61467;50.674;4.618;2022-07-23T11:05:15;25.50;49.34
72650;SHT31;61467;50.674;4.618;2022-07-23T11:08:12;25.32;48.48
72650;SHT31;61467;50.674;4.618;2022-07-23T11:10:45;24.98;49.05
72650;SHT31;61467;50.674;4.618;2022-07-23T11:13:36;25.23;49.46
72650;SHT31;61467;50.674;4.618;2022-07-23T11:16:13;24.78;49.33
72650;SHT31;61467;50.674;4.618;2022-07-23T11:21:51;25.23;49.59
72650;SHT31;61467;50.674;4.618;2022-07-23T11:24:22;25.39;48.95
72650;SHT31;61467;50.674;4.618;2022-07-23T11:26:53;25.35;49.33
72650;SHT31;61467;50.674;4.618;2022-07-23T11:29:38;25.62;48.47
72650;SHT31;61467;50.674;4.618;2022-07-23T11:32:18;25.59;48.61
72650;SHT31;61467;50.674;4.618;2022-07-23T11:34:47;25.46;49.00
72650;SHT31;61467;50.674;4.618;2022-07-23T11:37:27;25.66;48.35
72650;SHT31;61467;50.674;4.618;2022-07-23T11:39:55;25.74;48.43
72650;SHT31;61467;50.674;4.618;2022-07-23T11:42:22;25.53;47.70
72650;SHT31;61467;50.674;4.618;2022-07-23T11:44:49;25.62;48.34
72650;SHT31;61467;50.674;4.618;2022-07-23T11:47:23;25.51;48.07
72650;SHT31;61467;50.674;4.618;2022-07-23T11:49:53;25.57;48.19
72650;SHT31;61467;50.674;4.618;2022-07-23T11:52:21;25.67;47.98
72650;SHT31;61467;50.674;4.618;2022-07-23T11:54:49;25.86;47.85
72650;SHT31;61467;50.674;4.618;2022-07-23T11:57:16;26.09;47.30
72650;SHT31;61467;50.674;4.618;2022-07-23T11:59:46;26.20;46.58
72650;SHT31;61467;50.674;4.618;2022-07-23T12:02:13;26.29;45.59
72650;SHT31;61467;50.674;4.618;2022-07-23T12:04:42;26.48;45.57
72650;SHT31;61467;50.674;4.618;2022-07-23T12:07:26;26.53;44.84
72650;SHT31;61467;50.674;4.618;2022-07-23T12:09:53;26.71;45.08
72650;SHT31;61467;50.674;4.618;2022-07-23T12:12:21;26.85;43.95
72650;SHT31;61467;50.674;4.618;2022-07-23T12:14:49;26.72;44.72
72650;SHT31;61467;50.674;4.618;2022-07-23T12:17:15;26.99;43.86
72650;SHT31;61467;50.674;4.618;2022-07-23T12:19:44;27.27;43.51
72650;SHT31;61467;50.674;4.618;2022-07-23T12:22:11;27.47;42.66
72650;SHT31;61467;50.674;4.618;2022-07-23T12:25:00;27.80;42.23
72650;SHT31;61467;50.674;4.618;2022-07-23T12:27:28;27.78;42.62
72650;SHT31;61467;50.674;4.618;2022-07-23T12:29:54;27.69;41.82
72650;SHT31;61467;50.674;4.618;2022-07-23T12:32:22;27.81;42.31
72650;SHT31;61467;50.674;4.618;2022-07-23T12:35:03;27.48;42.11
72650;SHT31;61467;50.674;4.618;2022-07-23T12:37:32;27.48;43.31
72650;SHT31;61467;50.674;4.618;2022-07-23T12:40:18;26.76;43.19
72650;SHT31;61467;50.674;4.618;2022-07-23T12:42:45;26.62;44.43
72650;SHT31;61467;50.674;4.618;2022-07-23T12:45:12;26.63;44.06
72650;SHT31;61467;50.674;4.618;2022-07-23T12:48:00;26.89;44.23
72650;SHT31;61467;50.674;4.618;2022-07-23T12:50:44;26.96;44.29
72650;SHT31;61467;50.674;4.618;2022-07-23T12:53:13;27.17;43.79
72650;SHT31;61467;50.674;4.618;2022-07-23T12:55:41;27.43;43.53
72650;SHT31;61467;50.674;4.618;2022-07-23T12:58:11;27.69;43.42
72650;SHT31;61467;50.674;4.618;2022-07-23T13:01:03;27.96;41.30
72650;SHT31;61467;50.674;4.618;2022-07-23T13:03:35;27.94;41.50
72650;SHT31;61467;50.674;4.618;2022-07-23T13:06:06;27.45;42.16
72650;SHT31;61467;50.674;4.618;2022-07-23T13:08:34;27.26;43.05
72650;SHT31;61467;50.674;4.618;2022-07-23T13:11:02;27.53;42.88
72650;SHT31;61467;50.674;4.618;2022-07-23T13:13:31;27.17;42.59
72650;SHT31;61467;50.674;4.618;2022-07-23T13:15:58;27.22;42.86
72650;SHT31;61467;50.674;4.618;2022-07-23T13:18:26;27.07;42.37
72650;SHT31;61467;50.674;4.618;2022-07-23T13:20:53;27.41;43.02
72650;SHT31;61467;50.674;4.618;2022-07-23T13:23:21;27.61;42.43
72650;SHT31;61467;50.674;4.618;2022-07-23T13:25:49;27.81;42.00
72650;SHT31;61467;50.674;4.618;2022-07-23T13:28:16;27.80;42.10
72650;SHT31;61467;50.674;4.618;2022-07-23T13:30:44;28.13;42.14
72650;SHT31;61467;50.674;4.618;2022-07-23T13:33:13;28.40;40.82
72650;SHT31;61467;50.674;4.618;2022-07-23T13:35:39;28.02;40.51
72650;SHT31;61467;50.674;4.618;2022-07-23T13:38:06;28.16;41.65
72650;SHT31;61467;50.674;4.618;2022-07-23T13:40:39;27.96;41.47
72650;SHT31;61467;50.674;4.618;2022-07-23T13:43:08;28.12;41.71
72650;SHT31;61467;50.674;4.618;2022-07-23T13:45:35;28.16;41.69
72650;SHT31;61467;50.674;4.618;2022-07-23T13:48:02;28.33;41.54
72650;SHT31;61467;50.674;4.618;2022-07-23T13:50:29;28.25;40.98
72650;SHT31;61467;50.674;4.618;2022-07-23T13:52:55;28.25;40.99
72650;SHT31;61467;50.674;4.618;2022-07-23T13:55:22;28.27;41.29
72650;SHT31;61467;50.674;4.618;2022-07-23T13:57:50;28.43;40.59
72650;SHT31;61467;50.674;4.618;2022-07-23T14:00:17;28.45;40.58
72650;SHT31;61467;50.674;4.618;2022-07-23T14:02:44;28.36;39.57
72650;SHT31;61467;50.674;4.618;2022-07-23T14:05:11;28.63;40.90
72650;SHT31;61467;50.674;4.618;2022-07-23T14:07:38;28.80;39.37
72650;SHT31;61467;50.674;4.618;2022-07-23T14:10:07;29.10;39.72
72650;SHT31;61467;50.674;4.618;2022-07-23T14:12:34;29.31;38.60
72650;SHT31;61467;50.674;4.618;2022-07-23T14:15:03;29.39;37.50
72650;SHT31;61467;50.674;4.618;2022-07-23T14:17:30;29.52;38.04
72650;SHT31;61467;50.674;4.618;2022-07-23T14:19:58;29.73;38.27
72650;SHT31;61467;50.674;4.618;2022-07-23T14:22:25;29.45;37.81
72650;SHT31;61467;50.674;4.618;2022-07-23T14:24:52;29.46;37.80
72650;SHT31;61467;50.674;4.618;2022-07-23T14:27:18;29.14;38.47
72650;SHT31;61467;50.674;4.618;2022-07-23T14:29:45;29.25;39.16
72650;SHT31;61467;50.674;4.618;2022-07-23T14:32:13;29.22;38.88
72650;SHT31;61467;50.674;4.618;2022-07-23T14:34:40;29.39;38.18
72650;SHT31;61467;50.674;4.618;2022-07-23T14:37:06;29.41;38.78
72650;SHT31;61467;50.674;4.618;2022-07-23T14:39:33;29.66;38.10
72650;SHT31;61467;50.674;4.618;2022-07-23T14:42:02;29.32;37.53
72650;SHT31;61467;50.674;4.618;2022-07-23T14:44:28;28.86;38.17
72650;SHT31;61467;50.674;4.618;2022-07-23T14:46:55;28.94;38.30
72650;SHT31;61467;50.674;4.618;2022-07-23T14:49:23;29.01;38.65
72650;SHT31;61467;50.674;4.618;2022-07-23T14:58:36;28.71;38.43
72650;SHT31;61467;50.674;4.618;2022-07-23T15:01:11;29.04;39.05
72650;SHT31;61467;50.674;4.618;2022-07-23T15:03:37;28.97;39.53
72650;SHT31;61467;50.674;4.618;2022-07-23T15:06:06;28.94;39.13
72650;SHT31;61467;50.674;4.618;2022-07-23T15:08:33;29.31;39.44
72650;SHT31;61467;50.674;4.618;2022-07-23T15:11:00;29.41;39.17
72650;SHT31;61467;50.674;4.618;2022-07-23T15:13:26;29.38;38.92
72650;SHT31;61467;50.674;4.618;2022-07-23T15:15:53;29.24;38.05
72650;SHT31;61467;50.674;4.618;2022-07-23T15:18:20;29.34;38.84
72650;SHT31;61467;50.674;4.618;2022-07-23T15:20:46;29.19;39.33
72650;SHT31;61467;50.674;4.618;2022-07-23T15:23:14;28.80;38.83
72650;SHT31;61467;50.674;4.618;2022-07-23T15:25:41;28.88;39.37
72650;SHT31;61467;50.674;4.618;2022-07-23T15:28:08;28.68;39.01
72650;SHT31;61467;50.674;4.618;2022-07-23T15:30:35;28.94;39.12
72650;SHT31;61467;50.674;4.618;2022-07-23T15:33:02;28.78;39.59
72650;SHT31;61467;50.674;4.618;2022-07-23T15:35:30;28.98;38.45
72650;SHT31;61467;50.674;4.618;2022-07-23T15:37:57;29.05;39.72
72650;SHT31;61467;50.674;4.618;2022-07-23T15:40:25;29.01;37.93
72650;SHT31;61467;50.674;4.618;2022-07-23T15:42:52;29.01;38.96
72650;SHT31;61467;50.674;4.618;2022-07-23T15:45:20;28.98;38.35
72650;SHT31;61467;50.674;4.618;2022-07-23T15:47:47;29.42;38.81
72650;SHT31;61467;50.674;4.618;2022-07-23T15:50:14;29.62;38.28